N312CL K06A-KLZU
Flight info
| Callsign | N312CL |
|---|---|
| Flight time | 1h 3m |
| Altitude | 5000 |
| Route | KEEPS BOKRT3 |
| Aircraft | C182/L-SDGRY/S |
Departure
| Time | 2026-04-25 15:55 |
|---|---|
| Airport | Moton Field Municipal Airport (K06A) |
Arrival
| Time | 2026-04-25 16:58 |
|---|---|
| Airport | Gwinnett County Briscoe Field (KLZU) |
| Time | Latitude | Longitude | Altitude | Speed | Heading |
|---|---|---|---|---|---|
| 2026-04-25 15:48 | 32.45905 | -85.68119 | 284 ft | 0 kts | 35° |
| 2026-04-25 15:50 | 32.45906 | -85.68111 | 287 ft | 4 kts | 91° |
| 2026-04-25 15:50 | 32.45922 | -85.68040 | 285 ft | 13 kts | 39° |
| 2026-04-25 15:51 | 32.45965 | -85.68000 | 285 ft | 0 kts | 42° |
| 2026-04-25 15:53 | 32.45969 | -85.67996 | 286 ft | 3 kts | 42° |
| 2026-04-25 15:54 | 32.46014 | -85.67966 | 286 ft | 11 kts | 341° |
| 2026-04-25 15:54 | 32.46135 | -85.68131 | 287 ft | 50 kts | 310° |
| 2026-04-25 15:54 | 32.46447 | -85.68593 | 351 ft | 87 kts | 308° |
| 2026-04-25 15:54 | 32.46901 | -85.69122 | 628 ft | 97 kts | 315° |
| 2026-04-25 15:55 | 32.47422 | -85.69577 | 956 ft | 102 kts | 335° |
| 2026-04-25 15:55 | 32.48133 | -85.69412 | 1218 ft | 108 kts | 25° |
| 2026-04-25 15:55 | 32.48794 | -85.68999 | 1523 ft | 103 kts | 26° |
| 2026-04-25 15:55 | 32.49458 | -85.68634 | 1733 ft | 115 kts | 14° |
| 2026-04-25 15:56 | 32.50234 | -85.68261 | 1974 ft | 125 kts | 17° |
| 2026-04-25 15:56 | 32.51040 | -85.67824 | 2227 ft | 129 kts | 21° |
| 2026-04-25 15:56 | 32.51856 | -85.67337 | 2479 ft | 133 kts | 22° |
| 2026-04-25 15:56 | 32.52680 | -85.66833 | 2727 ft | 133 kts | 24° |
| 2026-04-25 15:57 | 32.53492 | -85.66328 | 2999 ft | 134 kts | 23° |
| 2026-04-25 15:57 | 32.54316 | -85.65815 | 3291 ft | 133 kts | 22° |
| 2026-04-25 15:57 | 32.55127 | -85.65308 | 3588 ft | 131 kts | 23° |
| 2026-04-25 15:57 | 32.55923 | -85.64812 | 3880 ft | 128 kts | 22° |
| 2026-04-25 15:58 | 32.56704 | -85.64325 | 4174 ft | 125 kts | 23° |
| 2026-04-25 15:58 | 32.57469 | -85.63848 | 4468 ft | 123 kts | 21° |
| 2026-04-25 15:58 | 32.58218 | -85.63380 | 4764 ft | 121 kts | 21° |
| 2026-04-25 15:58 | 32.58979 | -85.62908 | 4942 ft | 132 kts | 20° |
| 2026-04-25 15:59 | 32.59855 | -85.62365 | 4957 ft | 150 kts | 22° |
| 2026-04-25 15:59 | 32.60803 | -85.61768 | 4957 ft | 155 kts | 23° |
| 2026-04-25 15:59 | 32.61758 | -85.61166 | 4959 ft | 156 kts | 22° |
| 2026-04-25 15:59 | 32.62721 | -85.60564 | 4956 ft | 157 kts | 22° |
| 2026-04-25 16:00 | 32.63688 | -85.59959 | 4958 ft | 157 kts | 23° |
| 2026-04-25 16:00 | 32.64000 | -85.59763 | 4960 ft | 157 kts | 23° |
| 2026-04-25 16:00 | 32.65611 | -85.58755 | 4958 ft | 156 kts | 22° |
| 2026-04-25 16:00 | 32.66560 | -85.58162 | 4961 ft | 157 kts | 23° |
| 2026-04-25 16:01 | 32.67526 | -85.57556 | 4959 ft | 157 kts | 23° |
| 2026-04-25 16:01 | 32.68491 | -85.56951 | 4958 ft | 157 kts | 22° |
| 2026-04-25 16:01 | 32.69454 | -85.56348 | 4958 ft | 157 kts | 23° |
| 2026-04-25 16:01 | 32.70420 | -85.55743 | 4958 ft | 156 kts | 22° |
| 2026-04-25 16:02 | 32.71381 | -85.55140 | 4957 ft | 156 kts | 22° |
| 2026-04-25 16:02 | 32.72342 | -85.54538 | 4952 ft | 155 kts | 23° |
| 2026-04-25 16:02 | 32.73301 | -85.53938 | 4955 ft | 156 kts | 22° |
| 2026-04-25 16:02 | 32.74259 | -85.53336 | 4951 ft | 156 kts | 22° |
| 2026-04-25 16:03 | 32.75215 | -85.52736 | 4952 ft | 154 kts | 23° |
| 2026-04-25 16:03 | 32.76165 | -85.52140 | 4950 ft | 155 kts | 22° |
| 2026-04-25 16:03 | 32.77120 | -85.51541 | 4947 ft | 155 kts | 23° |
| 2026-04-25 16:03 | 32.78064 | -85.50948 | 4946 ft | 155 kts | 22° |
| 2026-04-25 16:04 | 32.79018 | -85.50348 | 4943 ft | 155 kts | 23° |
| 2026-04-25 16:04 | 32.79975 | -85.49748 | 4943 ft | 156 kts | 22° |
| 2026-04-25 16:04 | 32.80936 | -85.49145 | 4953 ft | 156 kts | 22° |
| 2026-04-25 16:04 | 32.81897 | -85.48540 | 4941 ft | 155 kts | 22° |
| 2026-04-25 16:05 | 32.82847 | -85.47942 | 4941 ft | 154 kts | 21° |
| 2026-04-25 16:05 | 32.83802 | -85.47343 | 4940 ft | 156 kts | 22° |
| 2026-04-25 16:05 | 32.85706 | -85.46144 | 4935 ft | 154 kts | 21° |
| 2026-04-25 16:06 | 32.86655 | -85.45547 | 4932 ft | 154 kts | 21° |
| 2026-04-25 16:06 | 32.87608 | -85.44948 | 4931 ft | 155 kts | 21° |
| 2026-04-25 16:06 | 32.88562 | -85.44347 | 4929 ft | 156 kts | 21° |
| 2026-04-25 16:06 | 32.89524 | -85.43742 | 4928 ft | 156 kts | 22° |
| 2026-04-25 16:07 | 32.90480 | -85.43139 | 4928 ft | 156 kts | 21° |
| 2026-04-25 16:07 | 32.90792 | -85.42942 | 4927 ft | 156 kts | 22° |
| 2026-04-25 16:07 | 32.92391 | -85.41935 | 4919 ft | 156 kts | 22° |
| 2026-04-25 16:07 | 32.93352 | -85.41329 | 4918 ft | 156 kts | 22° |
| 2026-04-25 16:08 | 32.94316 | -85.40722 | 4912 ft | 157 kts | 22° |
| 2026-04-25 16:08 | 32.95285 | -85.40111 | 4908 ft | 158 kts | 23° |
| 2026-04-25 16:08 | 32.96253 | -85.39500 | 4907 ft | 157 kts | 22° |
| 2026-04-25 16:08 | 32.97220 | -85.38890 | 4903 ft | 158 kts | 22° |
| 2026-04-25 16:09 | 32.98198 | -85.38273 | 4906 ft | 159 kts | 22° |
| 2026-04-25 16:09 | 32.99172 | -85.37657 | 4904 ft | 158 kts | 22° |
| 2026-04-25 16:09 | 33.00140 | -85.37031 | 4900 ft | 159 kts | 27° |
| 2026-04-25 16:09 | 33.01037 | -85.36235 | 4897 ft | 160 kts | 32° |
| 2026-04-25 16:10 | 33.01937 | -85.35448 | 4900 ft | 160 kts | 32° |
| 2026-04-25 16:10 | 33.02821 | -85.34675 | 4901 ft | 159 kts | 32° |
| 2026-04-25 16:10 | 33.03716 | -85.33890 | 4901 ft | 160 kts | 32° |
| 2026-04-25 16:10 | 33.04608 | -85.33106 | 4898 ft | 159 kts | 32° |
| 2026-04-25 16:11 | 33.05501 | -85.32320 | 4899 ft | 160 kts | 32° |
| 2026-04-25 16:11 | 33.06391 | -85.31538 | 4900 ft | 159 kts | 32° |
| 2026-04-25 16:11 | 33.07282 | -85.30754 | 4911 ft | 159 kts | 31° |
| 2026-04-25 16:11 | 33.08175 | -85.29969 | 4911 ft | 159 kts | 31° |
| 2026-04-25 16:12 | 33.09056 | -85.29194 | 4910 ft | 159 kts | 31° |
| 2026-04-25 16:12 | 33.09944 | -85.28411 | 4912 ft | 159 kts | 31° |
| 2026-04-25 16:12 | 33.10833 | -85.27628 | 4910 ft | 159 kts | 31° |
| 2026-04-25 16:12 | 33.11421 | -85.27109 | 4911 ft | 158 kts | 31° |
| 2026-04-25 16:13 | 33.12608 | -85.26064 | 4913 ft | 159 kts | 31° |
| 2026-04-25 16:13 | 33.13498 | -85.25280 | 4914 ft | 159 kts | 31° |
| 2026-04-25 16:13 | 33.14385 | -85.24498 | 4916 ft | 158 kts | 31° |
| 2026-04-25 16:13 | 33.15271 | -85.23717 | 4915 ft | 159 kts | 31° |
| 2026-04-25 16:14 | 33.16161 | -85.22932 | 4914 ft | 159 kts | 32° |
| 2026-04-25 16:14 | 33.17038 | -85.22158 | 4913 ft | 159 kts | 31° |
| 2026-04-25 16:14 | 33.17931 | -85.21370 | 4908 ft | 159 kts | 31° |
| 2026-04-25 16:14 | 33.18815 | -85.20589 | 4909 ft | 157 kts | 32° |
| 2026-04-25 16:15 | 33.19696 | -85.19812 | 4913 ft | 157 kts | 32° |
| 2026-04-25 16:15 | 33.20577 | -85.19033 | 4908 ft | 158 kts | 32° |
| 2026-04-25 16:15 | 33.21455 | -85.18258 | 4911 ft | 157 kts | 32° |
| 2026-04-25 16:15 | 33.22334 | -85.17481 | 4913 ft | 157 kts | 31° |
| 2026-04-25 16:16 | 33.23214 | -85.16703 | 4910 ft | 157 kts | 31° |
| 2026-04-25 16:16 | 33.24092 | -85.15927 | 4915 ft | 157 kts | 31° |
| 2026-04-25 16:16 | 33.24972 | -85.15149 | 4918 ft | 158 kts | 31° |
| 2026-04-25 16:16 | 33.25859 | -85.14392 | 4910 ft | 154 kts | 25° |
| 2026-04-25 16:17 | 33.26850 | -85.14043 | 4911 ft | 147 kts | 1° |
| 2026-04-25 16:17 | 33.27846 | -85.13828 | 4910 ft | 147 kts | 2° |
| 2026-04-25 16:17 | 33.28851 | -85.13591 | 4912 ft | 147 kts | 4° |
| 2026-04-25 16:17 | 33.29859 | -85.13347 | 4913 ft | 148 kts | 3° |
| 2026-04-25 16:18 | 33.30873 | -85.13102 | 4912 ft | 149 kts | 3° |
| 2026-04-25 16:18 | 33.31214 | -85.13019 | 4913 ft | 148 kts | 3° |
| 2026-04-25 16:18 | 33.32889 | -85.12613 | 4916 ft | 148 kts | 4° |
| 2026-04-25 16:18 | 33.33902 | -85.12366 | 4923 ft | 148 kts | 3° |
| 2026-04-25 16:19 | 33.34901 | -85.12123 | 4925 ft | 147 kts | 3° |
| 2026-04-25 16:19 | 33.35899 | -85.11882 | 4933 ft | 146 kts | 3° |
| 2026-04-25 16:19 | 33.36890 | -85.11639 | 4935 ft | 145 kts | 3° |
| 2026-04-25 16:20 | 33.38860 | -85.11160 | 4944 ft | 144 kts | 4° |
| 2026-04-25 16:20 | 33.39845 | -85.10923 | 4946 ft | 144 kts | 3° |
| 2026-04-25 16:20 | 33.41806 | -85.10444 | 4951 ft | 144 kts | 4° |
| 2026-04-25 16:21 | 33.42792 | -85.10202 | 4954 ft | 146 kts | 4° |
| 2026-04-25 16:21 | 33.43774 | -85.09964 | 4957 ft | 146 kts | 4° |
| 2026-04-25 16:21 | 33.44764 | -85.09724 | 4959 ft | 144 kts | 4° |
| 2026-04-25 16:21 | 33.45743 | -85.09486 | 4965 ft | 144 kts | 5° |
| 2026-04-25 16:22 | 33.46737 | -85.09247 | 4974 ft | 147 kts | 4° |
| 2026-04-25 16:22 | 33.47749 | -85.08998 | 4983 ft | 149 kts | 4° |
| 2026-04-25 16:22 | 33.48781 | -85.08746 | 4992 ft | 154 kts | 5° |
| 2026-04-25 16:22 | 33.49829 | -85.08494 | 4999 ft | 156 kts | 4° |
| 2026-04-25 16:23 | 33.50911 | -85.08228 | 5004 ft | 156 kts | 5° |
| 2026-04-25 16:23 | 33.51954 | -85.07969 | 5002 ft | 154 kts | 6° |
| 2026-04-25 16:23 | 33.53005 | -85.07717 | 4997 ft | 153 kts | 3° |
| 2026-04-25 16:23 | 33.54041 | -85.07468 | 4999 ft | 151 kts | 4° |
| 2026-04-25 16:24 | 33.55063 | -85.07215 | 4999 ft | 149 kts | 4° |
| 2026-04-25 16:24 | 33.56079 | -85.06967 | 5002 ft | 149 kts | 4° |
| 2026-04-25 16:24 | 33.57089 | -85.06717 | 5002 ft | 147 kts | 5° |
| 2026-04-25 16:24 | 33.58085 | -85.06475 | 5002 ft | 146 kts | 3° |
| 2026-04-25 16:25 | 33.59071 | -85.06238 | 5011 ft | 147 kts | 4° |
| 2026-04-25 16:25 | 33.59408 | -85.06154 | 5012 ft | 146 kts | 4° |
| 2026-04-25 16:25 | 33.61060 | -85.05754 | 5013 ft | 147 kts | 4° |
| 2026-04-25 16:25 | 33.62069 | -85.05505 | 5015 ft | 149 kts | 5° |
| 2026-04-25 16:26 | 33.63083 | -85.05253 | 5015 ft | 148 kts | 4° |
| 2026-04-25 16:26 | 33.64081 | -85.05003 | 5016 ft | 147 kts | 3° |
| 2026-04-25 16:26 | 33.65091 | -85.04765 | 5017 ft | 149 kts | 3° |
| 2026-04-25 16:26 | 33.66100 | -85.04515 | 5009 ft | 148 kts | 3° |
| 2026-04-25 16:27 | 33.67105 | -85.04271 | 5008 ft | 147 kts | 1° |
| 2026-04-25 16:27 | 33.68119 | -85.04031 | 5004 ft | 149 kts | 3° |
| 2026-04-25 16:27 | 33.69136 | -85.03780 | 5001 ft | 150 kts | 4° |
| 2026-04-25 16:27 | 33.70152 | -85.03523 | 5000 ft | 148 kts | 4° |
| 2026-04-25 16:28 | 33.71161 | -85.03273 | 4996 ft | 148 kts | 4° |
| 2026-04-25 16:28 | 33.72182 | -85.03027 | 4996 ft | 152 kts | 4° |
| 2026-04-25 16:28 | 33.73224 | -85.02772 | 4991 ft | 153 kts | 4° |
| 2026-04-25 16:28 | 33.74259 | -85.02517 | 4991 ft | 151 kts | 3° |
| 2026-04-25 16:29 | 33.75286 | -85.02262 | 4943 ft | 151 kts | 5° |
| 2026-04-25 16:29 | 33.76323 | -85.02011 | 4947 ft | 153 kts | 3° |
| 2026-04-25 16:29 | 33.77363 | -85.01752 | 4947 ft | 152 kts | 2° |
| 2026-04-25 16:29 | 33.78397 | -85.01503 | 4946 ft | 151 kts | 4° |
| 2026-04-25 16:30 | 33.79424 | -85.01251 | 4945 ft | 150 kts | 3° |
| 2026-04-25 16:30 | 33.80394 | -85.00779 | 4939 ft | 158 kts | 27° |
| 2026-04-25 16:30 | 33.81286 | -84.99997 | 4945 ft | 159 kts | 31° |
| 2026-04-25 16:30 | 33.82189 | -84.99216 | 4948 ft | 160 kts | 30° |
| 2026-04-25 16:31 | 33.83107 | -84.98445 | 4960 ft | 162 kts | 28° |
| 2026-04-25 16:31 | 33.84053 | -84.97663 | 4959 ft | 168 kts | 30° |
| 2026-04-25 16:31 | 33.84694 | -84.97131 | 4958 ft | 169 kts | 30° |
| 2026-04-25 16:31 | 33.85658 | -84.96314 | 4963 ft | 169 kts | 29° |
| 2026-04-25 16:32 | 33.86928 | -84.95224 | 4953 ft | 169 kts | 32° |
| 2026-04-25 16:32 | 33.87892 | -84.94420 | 4949 ft | 168 kts | 30° |
| 2026-04-25 16:32 | 33.88536 | -84.93871 | 4946 ft | 169 kts | 34° |
| 2026-04-25 16:32 | 33.89207 | -84.92723 | 4931 ft | 171 kts | 69° |
| 2026-04-25 16:33 | 33.89410 | -84.91327 | 4958 ft | 170 kts | 84° |
| 2026-04-25 16:33 | 33.89516 | -84.89913 | 4959 ft | 170 kts | 85° |
| 2026-04-25 16:33 | 33.89712 | -84.88494 | 4959 ft | 174 kts | 79° |
| 2026-04-25 16:33 | 33.89955 | -84.87086 | 4950 ft | 170 kts | 81° |
| 2026-04-25 16:34 | 33.90160 | -84.85699 | 4941 ft | 167 kts | 80° |
| 2026-04-25 16:34 | 33.90376 | -84.84351 | 4944 ft | 166 kts | 79° |
| 2026-04-25 16:34 | 33.90597 | -84.82992 | 4945 ft | 165 kts | 79° |
| 2026-04-25 16:34 | 33.90816 | -84.81642 | 4939 ft | 164 kts | 79° |
| 2026-04-25 16:35 | 33.91035 | -84.80298 | 4938 ft | 163 kts | 79° |
| 2026-04-25 16:35 | 33.91253 | -84.78954 | 4937 ft | 164 kts | 78° |
| 2026-04-25 16:35 | 33.91475 | -84.77596 | 4934 ft | 167 kts | 78° |
| 2026-04-25 16:35 | 33.91700 | -84.76226 | 4930 ft | 166 kts | 79° |
| 2026-04-25 16:36 | 33.91915 | -84.74889 | 4928 ft | 163 kts | 79° |
| 2026-04-25 16:36 | 33.91988 | -84.74435 | 4927 ft | 163 kts | 79° |
| 2026-04-25 16:36 | 33.92347 | -84.72220 | 4929 ft | 161 kts | 78° |
| 2026-04-25 16:36 | 33.92563 | -84.70899 | 4932 ft | 161 kts | 79° |
| 2026-04-25 16:37 | 33.92781 | -84.69572 | 4935 ft | 161 kts | 79° |
| 2026-04-25 16:37 | 33.92998 | -84.68249 | 4936 ft | 161 kts | 79° |
| 2026-04-25 16:37 | 33.93217 | -84.66921 | 4942 ft | 161 kts | 79° |
| 2026-04-25 16:37 | 33.93438 | -84.65593 | 4946 ft | 162 kts | 81° |
| 2026-04-25 16:38 | 33.93655 | -84.64292 | 4991 ft | 161 kts | 80° |
| 2026-04-25 16:38 | 33.93878 | -84.62968 | 4992 ft | 162 kts | 80° |
| 2026-04-25 16:38 | 33.94105 | -84.61626 | 4992 ft | 164 kts | 80° |
| 2026-04-25 16:38 | 33.94337 | -84.60270 | 4992 ft | 165 kts | 80° |
| 2026-04-25 16:39 | 33.94573 | -84.58911 | 4990 ft | 165 kts | 81° |
| 2026-04-25 16:39 | 33.94801 | -84.57563 | 4966 ft | 164 kts | 81° |
| 2026-04-25 16:39 | 33.95031 | -84.56213 | 4967 ft | 165 kts | 81° |
| 2026-04-25 16:39 | 33.95264 | -84.54851 | 4965 ft | 165 kts | 80° |
| 2026-04-25 16:40 | 33.95497 | -84.53500 | 4965 ft | 164 kts | 80° |
| 2026-04-25 16:40 | 33.95718 | -84.52165 | 4968 ft | 164 kts | 82° |
| 2026-04-25 16:40 | 33.95930 | -84.50807 | 4967 ft | 166 kts | 81° |
| 2026-04-25 16:40 | 33.96154 | -84.49447 | 4967 ft | 165 kts | 81° |
| 2026-04-25 16:41 | 33.96379 | -84.48093 | 4967 ft | 164 kts | 81° |
| 2026-04-25 16:41 | 33.96528 | -84.47197 | 4966 ft | 165 kts | 80° |
| 2026-04-25 16:41 | 33.97058 | -84.44018 | 4966 ft | 165 kts | 81° |
| 2026-04-25 16:42 | 33.97285 | -84.42667 | 4964 ft | 164 kts | 81° |
| 2026-04-25 16:42 | 33.97507 | -84.41336 | 4962 ft | 163 kts | 81° |
| 2026-04-25 16:42 | 33.97732 | -84.40002 | 4958 ft | 161 kts | 80° |
| 2026-04-25 16:42 | 33.97968 | -84.38690 | 4954 ft | 160 kts | 79° |
| 2026-04-25 16:43 | 33.98202 | -84.37377 | 4974 ft | 160 kts | 80° |
| 2026-04-25 16:43 | 33.98433 | -84.36054 | 4975 ft | 161 kts | 80° |
| 2026-04-25 16:43 | 33.98662 | -84.34727 | 4975 ft | 162 kts | 80° |
| 2026-04-25 16:43 | 33.98893 | -84.33402 | 4976 ft | 162 kts | 81° |
| 2026-04-25 16:44 | 33.99122 | -84.32084 | 4988 ft | 159 kts | 81° |
| 2026-04-25 16:44 | 33.99350 | -84.30767 | 4986 ft | 162 kts | 81° |
| 2026-04-25 16:44 | 33.99580 | -84.29440 | 4985 ft | 162 kts | 81° |
| 2026-04-25 16:44 | 33.99808 | -84.28128 | 4983 ft | 163 kts | 81° |
| 2026-04-25 16:45 | 34.00042 | -84.26785 | 4982 ft | 164 kts | 80° |
| 2026-04-25 16:45 | 34.00275 | -84.25440 | 4981 ft | 165 kts | 81° |
| 2026-04-25 16:45 | 34.00511 | -84.24087 | 4979 ft | 165 kts | 80° |
| 2026-04-25 16:45 | 34.00750 | -84.22702 | 4819 ft | 171 kts | 81° |
| 2026-04-25 16:46 | 34.00996 | -84.21280 | 4648 ft | 175 kts | 81° |
| 2026-04-25 16:46 | 34.01246 | -84.19830 | 4479 ft | 178 kts | 82° |
| 2026-04-25 16:46 | 34.01499 | -84.18360 | 4297 ft | 179 kts | 81° |
| 2026-04-25 16:46 | 34.01667 | -84.17392 | 4186 ft | 178 kts | 81° |
| 2026-04-25 16:47 | 34.02006 | -84.15444 | 3963 ft | 178 kts | 80° |
| 2026-04-25 16:47 | 34.02263 | -84.13990 | 3797 ft | 177 kts | 80° |
| 2026-04-25 16:47 | 34.02509 | -84.12522 | 3630 ft | 180 kts | 82° |
| 2026-04-25 16:47 | 34.02730 | -84.11050 | 3456 ft | 178 kts | 82° |
| 2026-04-25 16:48 | 34.02965 | -84.09617 | 3288 ft | 177 kts | 81° |
| 2026-04-25 16:48 | 34.03214 | -84.08165 | 3113 ft | 177 kts | 80° |
| 2026-04-25 16:48 | 34.03463 | -84.06711 | 2943 ft | 177 kts | 80° |
| 2026-04-25 16:48 | 34.03711 | -84.05249 | 2778 ft | 179 kts | 80° |
| 2026-04-25 16:49 | 34.03959 | -84.03785 | 2606 ft | 176 kts | 79° |
| 2026-04-25 16:49 | 34.04210 | -84.02358 | 2430 ft | 173 kts | 79° |
| 2026-04-25 16:49 | 34.04467 | -84.00931 | 2255 ft | 174 kts | 79° |
| 2026-04-25 16:49 | 34.04729 | -83.99513 | 2083 ft | 173 kts | 79° |
| 2026-04-25 16:50 | 34.04963 | -83.98110 | 1999 ft | 167 kts | 78° |
| 2026-04-25 16:50 | 34.05186 | -83.96765 | 1986 ft | 160 kts | 78° |
| 2026-04-25 16:50 | 34.05386 | -83.95474 | 1988 ft | 154 kts | 81° |
| 2026-04-25 16:50 | 34.05578 | -83.94225 | 1997 ft | 151 kts | 79° |
| 2026-04-25 16:51 | 34.05761 | -83.92976 | 2003 ft | 152 kts | 79° |
| 2026-04-25 16:51 | 34.05956 | -83.91720 | 2005 ft | 155 kts | 79° |
| 2026-04-25 16:51 | 34.06160 | -83.90433 | 2002 ft | 157 kts | 78° |
| 2026-04-25 16:51 | 34.06310 | -83.89575 | 2013 ft | 158 kts | 76° |
| 2026-04-25 16:52 | 34.06656 | -83.87826 | 1996 ft | 161 kts | 74° |
| 2026-04-25 16:52 | 34.06930 | -83.86510 | 2002 ft | 162 kts | 74° |
| 2026-04-25 16:52 | 34.07239 | -83.85177 | 2057 ft | 162 kts | 64° |
| 2026-04-25 16:52 | 34.07780 | -83.84035 | 2083 ft | 166 kts | 71° |
| 2026-04-25 16:53 | 34.06530 | -83.82354 | 1965 ft | 142 kts | 190° |
| 2026-04-25 16:53 | 34.05608 | -83.82689 | 1989 ft | 138 kts | 204° |
| 2026-04-25 16:53 | 34.04671 | -83.83000 | 1984 ft | 142 kts | 200° |
| 2026-04-25 16:54 | 34.03730 | -83.83313 | 1994 ft | 140 kts | 199° |
| 2026-04-25 16:54 | 34.02938 | -83.83941 | 1980 ft | 138 kts | 237° |
| 2026-04-25 16:54 | 34.02468 | -83.84904 | 1990 ft | 131 kts | 243° |
| 2026-04-25 16:54 | 34.02041 | -83.85833 | 1987 ft | 123 kts | 245° |
| 2026-04-25 16:55 | 34.01662 | -83.86710 | 1988 ft | 113 kts | 246° |
| 2026-04-25 16:55 | 34.01342 | -83.87520 | 2007 ft | 102 kts | 248° |
| 2026-04-25 16:55 | 34.01068 | -83.88298 | 1911 ft | 99 kts | 249° |
| 2026-04-25 16:55 | 34.00771 | -83.89045 | 1873 ft | 96 kts | 245° |
| 2026-04-25 16:56 | 34.00483 | -83.89723 | 1817 ft | 89 kts | 246° |
| 2026-04-25 16:56 | 34.00232 | -83.90396 | 1691 ft | 87 kts | 245° |
| 2026-04-25 16:56 | 33.99995 | -83.91013 | 1618 ft | 74 kts | 241° |
| 2026-04-25 16:56 | 33.99772 | -83.91551 | 1570 ft | 70 kts | 240° |
| 2026-04-25 16:57 | 33.99551 | -83.92078 | 1568 ft | 72 kts | 239° |
| 2026-04-25 16:57 | 33.99473 | -83.92254 | 1566 ft | 75 kts | 241° |
| 2026-04-25 16:57 | 33.99047 | -83.93227 | 1406 ft | 79 kts | 242° |
| 2026-04-25 16:57 | 33.98826 | -83.93829 | 1306 ft | 78 kts | 244° |
| 2026-04-25 16:58 | 33.98565 | -83.94419 | 1212 ft | 80 kts | 241° |
| 2026-04-25 16:58 | 33.98321 | -83.94993 | 1082 ft | 76 kts | 242° |
| 2026-04-25 16:58 | 33.98092 | -83.95553 | 995 ft | 71 kts | 241° |
| 2026-04-25 16:58 | 33.97916 | -83.95980 | 1009 ft | 32 kts | 244° |
| 2026-04-25 16:59 | 33.97878 | -83.96078 | 1016 ft | 8 kts | 257° |
| 2026-04-25 16:59 | 33.97910 | -83.96128 | 1015 ft | 10 kts | 339° |
| 2026-04-25 16:59 | 33.97976 | -83.96172 | 1016 ft | 10 kts | 335° |
| 2026-04-25 16:59 | 33.98041 | -83.96213 | 1019 ft | 10 kts | 326° |
| 2026-04-25 17:00 | 33.98092 | -83.96251 | 1024 ft | 7 kts | 337° |
| 2026-04-25 17:00 | 33.98124 | -83.96256 | 1026 ft | 3 kts | 51° |
| 2026-04-25 17:00 | 33.98129 | -83.96237 | 1026 ft | 0 kts | 71° |